Time,TemperatureF,DewpointF,PressureIn,WindDirection,WindDirectionDegrees,WindSpeedMPH,WindSpeedGustMPH,Humidity,HourlyPrecipIn,Conditions,Clouds,dailyrainin,SoftwareType,DateUTC
2013-07-15 00:43:00,75.0,54.0,29.61,SE,124,1.0,5.0,48,0.00,,,0.00,,2013-07-15 07:43:00,
2013-07-15 08:34:00,71.0,50.0,29.62,North,0,0.0,4.0,48,0.00,,,0.00,,2013-07-15 15:34:00,
2013-07-15 09:01:00,73.0,53.0,29.62,North,0,0.0,4.0,50,0.00,,,0.00,,2013-07-15 16:01:00,
2013-07-15 09:13:00,73.0,53.0,29.62,North,0,0.0,4.0,50,0.00,,,0.00,,2013-07-15 16:13:00,
2013-07-15 09:32:00,73.0,55.0,29.62,ESE,116,1.0,6.0,54,0.00,,,0.00,,2013-07-15 16:32:00,
2013-07-15 09:42:00,73.0,56.0,29.62,North,0,0.0,6.0,55,0.00,,,0.00,,2013-07-15 16:42:00,
2013-07-15 09:52:00,73.0,56.0,29.62,North,0,0.0,6.0,55,0.00,,,0.00,,2013-07-15 16:52:00,
2013-07-15 10:01:00,72.0,55.0,29.62,North,0,0.0,2.0,56,0.00,,,0.00,,2013-07-15 17:01:00,
2013-07-15 10:12:00,72.0,55.0,29.62,North,0,0.0,2.0,56,0.00,,,0.00,,2013-07-15 17:12:00,
2013-07-15 10:22:00,71.0,54.0,29.62,SSE,156,2.0,8.0,56,0.00,,,0.00,,2013-07-15 17:22:00,
2013-07-15 10:34:00,71.0,54.0,29.62,SSE,156,2.0,8.0,56,0.00,,,0.00,,2013-07-15 17:34:00,
2013-07-15 10:43:00,71.0,54.0,29.62,North,0,0.0,6.0,56,0.00,,,0.00,,2013-07-15 17:43:00,
2013-07-15 11:01:00,71.0,54.0,29.62,SSE,154,4.0,10.0,56,0.00,,,0.00,,2013-07-15 18:01:00,
2013-07-15 11:12:00,71.0,54.0,29.62,SSE,154,4.0,10.0,56,0.00,,,0.00,,2013-07-15 18:12:00,
2013-07-15 11:21:00,72.0,55.0,29.63,North,0,0.0,5.0,56,0.00,,,0.00,,2013-07-15 18:21:00,
2013-07-15 11:44:00,73.0,56.0,29.63,North,0,0.0,8.0,55,0.00,,,0.00,,2013-07-15 18:44:00,
2013-07-15 11:57:00,73.0,56.0,29.63,North,0,0.0,8.0,55,0.00,,,0.00,,2013-07-15 18:57:00,
2013-07-15 12:11:00,73.0,56.0,29.63,North,0,0.0,8.0,55,0.00,,,0.00,,2013-07-15 19:11:00,
2013-07-15 12:38:00,76.0,57.0,29.63,North,0,0.0,5.0,51,0.00,,,0.00,,2013-07-15 19:38:00,
2013-07-15 12:47:00,75.0,57.0,29.63,North,0,0.0,4.0,53,0.00,,,0.00,,2013-07-15 19:47:00,
2013-07-15 12:56:00,75.0,57.0,29.63,North,0,0.0,4.0,53,0.00,,,0.00,,2013-07-15 19:56:00,
2013-07-15 13:01:00,76.0,56.0,29.63,North,0,0.0,5.0,50,0.00,,,0.00,,2013-07-15 20:01:00,
2013-07-15 13:12:00,76.0,56.0,29.63,North,0,0.0,5.0,50,0.00,,,0.00,,2013-07-15 20:12:00,
2013-07-15 13:33:00,77.0,56.0,29.62,North,0,0.0,1.0,48,0.00,,,0.00,,2013-07-15 20:33:00,
2013-07-15 13:43:00,76.0,55.0,29.63,North,0,0.0,2.0,49,0.00,,,0.00,,2013-07-15 20:43:00,
2013-07-15 13:55:00,76.0,55.0,29.63,North,0,0.0,2.0,49,0.00,,,0.00,,2013-07-15 20:55:00,
2013-07-15 14:12:00,77.0,55.0,29.63,North,0,0.0,5.0,47,0.00,,,0.00,,2013-07-15 21:12:00,
2013-07-15 14:22:00,77.0,55.0,29.62,North,0,0.0,1.0,46,0.00,,,0.00,,2013-07-15 21:22:00,
2013-07-15 14:33:00,77.0,55.0,29.62,North,0,0.0,1.0,46,0.00,,,0.00,,2013-07-15 21:33:00,
2013-07-15 15:01:00,77.0,55.0,29.62,North,0,0.0,3.0,46,0.00,,,0.00,,2013-07-15 22:01:00,
2013-07-15 15:12:00,77.0,55.0,29.62,North,0,0.0,3.0,46,0.00,,,0.00,,2013-07-15 22:12:00,
2013-07-15 15:22:00,77.0,55.0,29.62,North,0,0.0,1.0,47,0.00,,,0.00,,2013-07-15 22:22:00,
2013-07-15 15:34:00,77.0,55.0,29.62,North,0,0.0,1.0,47,0.00,,,0.00,,2013-07-15 22:34:00,
2013-07-15 15:43:00,79.0,53.0,29.61,NW,311,2.0,5.0,41,0.00,,,0.00,,2013-07-15 22:43:00,
2013-07-15 15:54:00,79.0,53.0,29.61,NW,311,2.0,5.0,41,0.00,,,0.00,,2013-07-15 22:54:00,
2013-07-15 16:01:00,78.0,56.0,29.61,North,0,0.0,2.0,46,0.00,,,0.00,,2013-07-15 23:01:00,
2013-07-15 16:12:00,78.0,56.0,29.61,North,0,0.0,2.0,46,0.00,,,0.00,,2013-07-15 23:12:00,
2013-07-15 16:34:00,78.0,55.0,29.60,North,0,0.0,4.0,45,0.00,,,0.00,,2013-07-15 23:34:00,
2013-07-15 16:43:00,77.0,53.0,29.60,North,0,0.0,5.0,43,0.00,,,0.00,,2013-07-15 23:43:00,
2013-07-15 17:02:00,77.0,49.0,29.59,North,0,0.0,5.0,38,0.00,,,0.00,,2013-07-16 00:02:00,
2013-07-15 17:12:00,77.0,49.0,29.59,North,0,0.0,5.0,38,0.00,,,0.00,,2013-07-16 00:12:00,
2013-07-15 17:42:00,79.0,45.0,29.58,WSW,254,3.0,10.0,30,0.00,,,0.00,,2013-07-16 00:42:00,
2013-07-15 17:43:00,77.0,51.0,29.57,West,267,2.0,9.0,40,0.00,,,0.00,,2013-07-16 00:43:00,
2013-07-15 17:53:00,79.0,45.0,29.58,WSW,254,3.0,10.0,30,0.00,,,0.00,,2013-07-16 00:53:00,
2013-07-15 18:02:00,77.0,51.0,29.57,West,267,2.0,9.0,40,0.00,,,0.00,,2013-07-16 01:02:00,
2013-07-15 18:12:00,77.0,51.0,29.57,West,267,2.0,9.0,40,0.00,,,0.00,,2013-07-16 01:12:00,
2013-07-15 18:22:00,77.0,51.0,29.57,West,267,2.0,9.0,40,0.00,,,0.00,,2013-07-16 01:22:00,
2013-07-15 18:33:00,77.0,51.0,29.57,West,267,2.0,9.0,40,0.00,,,0.00,,2013-07-16 01:33:00,
2013-07-15 19:02:00,74.0,54.0,29.57,West,265,5.0,8.0,49,0.00,,,0.00,,2013-07-16 02:02:00,
2013-07-15 19:11:00,74.0,54.0,29.57,West,265,5.0,8.0,49,0.00,,,0.00,,2013-07-16 02:11:00,
2013-07-15 19:24:00,74.0,54.0,29.57,West,265,5.0,8.0,49,0.00,,,0.00,,2013-07-16 02:24:00,
2013-07-15 19:34:00,74.0,54.0,29.57,West,265,5.0,8.0,49,0.00,,,0.00,,2013-07-16 02:34:00,
2013-07-15 19:43:00,72.0,55.0,29.57,WNW,286,7.0,11.0,55,0.00,,,0.00,,2013-07-16 02:43:00,
2013-07-15 19:54:00,72.0,55.0,29.57,WNW,286,7.0,11.0,55,0.00,,,0.00,,2013-07-16 02:54:00,
2013-07-15 20:03:00,72.0,55.0,29.57,WNW,286,7.0,11.0,55,0.00,,,0.00,,2013-07-16 03:03:00,
2013-07-15 20:12:00,72.0,55.0,29.57,WNW,286,7.0,11.0,55,0.00,,,0.00,,2013-07-16 03:12:00,
2013-07-15 20:22:00,71.0,53.0,29.56,West,263,10.0,15.0,53,0.00,,,0.00,,2013-07-16 03:22:00,
2013-07-15 20:40:00,71.0,53.0,29.56,West,263,10.0,15.0,53,0.00,,,0.00,,2013-07-16 03:40:00,
2013-07-15 20:48:00,69.0,55.0,29.57,West,274,12.0,15.0,60,0.00,,,0.00,,2013-07-16 03:48:00,
2013-07-15 21:01:00,69.0,54.0,29.57,West,261,7.0,13.0,58,0.00,,,0.00,,2013-07-16 04:01:00,
2013-07-15 21:12:00,69.0,54.0,29.57,West,261,7.0,13.0,58,0.00,,,0.00,,2013-07-16 04:12:00,
2013-07-15 21:22:00,69.0,54.0,29.57,West,261,7.0,13.0,58,0.00,,,0.00,,2013-07-16 04:22:00,
2013-07-15 21:32:00,69.0,54.0,29.57,West,261,7.0,13.0,58,0.00,,,0.00,,2013-07-16 04:32:00,
2013-07-15 21:43:00,69.0,49.0,29.58,WSW,258,6.0,11.0,49,0.00,,,0.00,,2013-07-16 04:43:00,
2013-07-15 21:53:00,69.0,49.0,29.58,WSW,258,6.0,11.0,49,0.00,,,0.00,,2013-07-16 04:53:00,
2013-07-15 22:01:00,68.0,49.0,29.59,West,275,7.0,10.0,51,0.00,,,0.00,,2013-07-16 05:01:00,
2013-07-15 22:11:00,68.0,49.0,29.59,West,275,7.0,10.0,51,0.00,,,0.00,,2013-07-16 05:11:00,
2013-07-15 22:21:00,69.0,51.0,29.60,North,0,0.0,5.0,53,0.00,,,0.00,,2013-07-16 05:21:00,